This is the latest recevied weather packets stored in our database for station/object KF7IOR. If no packets are shown the sender has not sent any weather packets the latest 10 day(s).
| Time | Temp. | Humidity | Pressure | Rain* | Wind** | Luminosity | Snow |
|---|---|---|---|---|---|---|---|
| 1777797634 | 12.78° C | 88% | 1012.1 hPa | 0 mm | - | 0 W/m² | - |
| 1777797045 | 12.78° C | 88% | 1012 hPa | 0 mm | - | 0 W/m² | - |
| 1777792835 | 13.89° C | 85% | 1012.2 hPa | 0 mm | - | 0 W/m² | - |
| 1777792234 | 13.89° C | 84% | 1012.2 hPa | 0 mm | - | 0 W/m² | - |
| 1777791643 | 14.44° C | 85% | 1012.1 hPa | 0 mm | - | 0 W/m² | - |
| 1777790435 | 14.44° C | 83% | 1012.2 hPa | 0 mm | - | 0 W/m² | - |
| 1777788946 | 15° C | 81% | 1012.3 hPa | 0 mm | - | 0 W/m² | - |
| 1777788635 | 15° C | 81% | 1012.3 hPa | 0 mm | - | 0 W/m² | - |
| 1777788044 | 15.56° C | 79% | 1012.2 hPa | 0 mm | - | 0 W/m² | - |
| 1777787735 | 15.56° C | 79% | 1012 hPa | 0 mm | - | 0 W/m² | - |
| 1777786837 | 16.11° C | 77% | 1011.8 hPa | 0 mm | - | 0 W/m² | - |
| 1777784135 | 16.67° C | 75% | 1012.3 hPa | 0 mm | - | 0 W/m² | - |
| 1777783835 | 17.22° C | 74% | 1012.4 hPa | 0 mm | - | 0 W/m² | - |
| 1777783560 | 17.22° C | 74% | 1012.4 hPa | 0 mm | - | 0 W/m² | - |
| 1777780851 | 17.78° C | 71% | 1012.2 hPa | 0 mm | - | 0 W/m² | - |
| 1777779042 | 18.33° C | 68% | 1011.9 hPa | 0 mm | - | 0 W/m² | - |
| 1777774835 | 21.11° C | 61% | 1011.5 hPa | 0 mm | - | 83 W/m² | - |
| 1777773335 | 23.33° C | 54% | 1010.8 hPa | 0 mm | - | 105 W/m² | - |
| 1777773035 | 23.33° C | 54% | 1010.7 hPa | 0 mm | - | 113 W/m² | - |
| 1777770334 | 23.33° C | 54% | 1010.7 hPa | 0 mm | - | 172 W/m² | - |
| 1777770045 | 23.33° C | 51% | 1010.6 hPa | 0 mm | - | 183 W/m² | - |
| 1777769735 | 23.89° C | 51% | 1010.6 hPa | 0 mm | - | 229 W/m² | - |
| 1777769165 | 24.44° C | 50% | 1010.7 hPa | 0 mm | - | 271 W/m² | - |
| 1777766446 | 22.78° C | 54% | 1010.9 hPa | 0 mm | - | 445 W/m² | - |
| 1777764936 | 22.78° C | 55% | 1011.2 hPa | 0 mm | - | 290 W/m² | - |
* Rain latest hour (hover to see other rain measurements)
** Current wind speed in m/s (hover to see current wind gust speed)